sensor_id;sensor_type;location;lat;lon;timestamp;pressure;altitude;pressure_sealevel;temperature;humidity
60479;BME280;46321;48.398;11.754;2023-05-02T00:01:21;96616.06;;;9.36;93.24
60479;BME280;46321;48.398;11.754;2023-05-02T00:03:47;96621.72;;;9.33;93.64
60479;BME280;46321;48.398;11.754;2023-05-02T00:06:12;96616.59;;;9.32;93.50
60479;BME280;46321;48.398;11.754;2023-05-02T00:08:37;96615.59;;;9.33;93.02
60479;BME280;46321;48.398;11.754;2023-05-02T00:11:03;96615.09;;;9.29;93.28
60479;BME280;46321;48.398;11.754;2023-05-02T00:13:29;96621.34;;;9.20;93.24
60479;BME280;46321;48.398;11.754;2023-05-02T00:15:54;96610.31;;;9.16;93.30
60479;BME280;46321;48.398;11.754;2023-05-02T00:18:20;96618.06;;;9.09;93.45
60479;BME280;46321;48.398;11.754;2023-05-02T00:20:45;96620.03;;;9.07;93.27
60479;BME280;46321;48.398;11.754;2023-05-02T00:23:10;96619.19;;;8.98;93.39
60479;BME280;46321;48.398;11.754;2023-05-02T00:25:43;96625.94;;;9.01;93.66
60479;BME280;46321;48.398;11.754;2023-05-02T00:28:08;96625.78;;;9.02;93.25
60479;BME280;46321;48.398;11.754;2023-05-02T00:30:33;96622.63;;;8.99;93.54
60479;BME280;46321;48.398;11.754;2023-05-02T00:32:58;96622.63;;;8.90;93.69
60479;BME280;46321;48.398;11.754;2023-05-02T00:35:24;96623.94;;;8.86;93.86
60479;BME280;46321;48.398;11.754;2023-05-02T00:37:49;96621.59;;;8.83;93.60
60479;BME280;46321;48.398;11.754;2023-05-02T00:40:14;96619.44;;;8.78;93.85
60479;BME280;46321;48.398;11.754;2023-05-02T00:42:40;96617.63;;;8.70;94.27
60479;BME280;46321;48.398;11.754;2023-05-02T00:45:05;96619.91;;;8.65;94.71
60479;BME280;46321;48.398;11.754;2023-05-02T00:47:31;96619.34;;;8.53;95.33
60479;BME280;46321;48.398;11.754;2023-05-02T00:49:56;96624.16;;;8.58;94.67
60479;BME280;46321;48.398;11.754;2023-05-02T00:52:23;96628.75;;;8.56;94.69
60479;BME280;46321;48.398;11.754;2023-05-02T00:54:49;96631.09;;;8.59;94.48
60479;BME280;46321;48.398;11.754;2023-05-02T00:57:14;96636.22;;;8.61;94.46
60479;BME280;46321;48.398;11.754;2023-05-02T00:59:40;96639.19;;;8.57;93.84
60479;BME280;46321;48.398;11.754;2023-05-02T01:02:31;96640.47;;;8.53;94.04
60479;BME280;46321;48.398;11.754;2023-05-02T01:05:29;96630.53;;;8.47;94.19
60479;BME280;46321;48.398;11.754;2023-05-02T01:08:09;96628.34;;;8.42;94.53
60479;BME280;46321;48.398;11.754;2023-05-02T01:13:19;96638.78;;;8.44;94.17
60479;BME280;46321;48.398;11.754;2023-05-02T01:15:47;96633.59;;;8.34;94.66
60479;BME280;46321;48.398;11.754;2023-05-02T01:18:17;96634.22;;;8.28;94.57
60479;BME280;46321;48.398;11.754;2023-05-02T01:20:47;96631.28;;;8.31;94.35
60479;BME280;46321;48.398;11.754;2023-05-02T01:26:16;96638.47;;;8.20;94.84
60479;BME280;46321;48.398;11.754;2023-05-02T01:28:56;96635.78;;;8.12;95.03
60479;BME280;46321;48.398;11.754;2023-05-02T01:31:24;96639.09;;;8.14;94.79
60479;BME280;46321;48.398;11.754;2023-05-02T01:33:53;96644.38;;;8.14;94.83
60479;BME280;46321;48.398;11.754;2023-05-02T01:36:19;96642.75;;;8.13;94.86
60479;BME280;46321;48.398;11.754;2023-05-02T01:38:46;96643.03;;;8.10;95.17
60479;BME280;46321;48.398;11.754;2023-05-02T01:41:12;96647.47;;;8.09;95.01
60479;BME280;46321;48.398;11.754;2023-05-02T01:43:39;96647.69;;;8.16;94.76
60479;BME280;46321;48.398;11.754;2023-05-02T01:46:06;96650.47;;;8.15;94.57
60479;BME280;46321;48.398;11.754;2023-05-02T01:48:34;96652.25;;;8.06;94.88
60479;BME280;46321;48.398;11.754;2023-05-02T01:51:01;96650.44;;;8.06;94.84
60479;BME280;46321;48.398;11.754;2023-05-02T01:53:29;96649.59;;;8.06;94.74
60479;BME280;46321;48.398;11.754;2023-05-02T01:55:58;96655.34;;;8.01;95.10
60479;BME280;46321;48.398;11.754;2023-05-02T01:58:26;96651.72;;;8.02;95.10
60479;BME280;46321;48.398;11.754;2023-05-02T02:00:54;96654.50;;;8.00;95.09
60479;BME280;46321;48.398;11.754;2023-05-02T02:03:20;96661.59;;;8.00;95.14
60479;BME280;46321;48.398;11.754;2023-05-02T02:05:48;96662.06;;;7.95;95.21
60479;BME280;46321;48.398;11.754;2023-05-02T02:08:15;96660.78;;;7.99;95.13
60479;BME280;46321;48.398;11.754;2023-05-02T02:10:44;96660.09;;;7.97;95.04
60479;BME280;46321;48.398;11.754;2023-05-02T02:13:24;96657.59;;;7.96;95.13
60479;BME280;46321;48.398;11.754;2023-05-02T02:15:52;96658.91;;;7.92;95.60
60479;BME280;46321;48.398;11.754;2023-05-02T02:18:24;96660.19;;;7.87;95.52
60479;BME280;46321;48.398;11.754;2023-05-02T02:20:53;96662.00;;;7.87;96.05
60479;BME280;46321;48.398;11.754;2023-05-02T02:23:21;96664.50;;;7.88;95.84
60479;BME280;46321;48.398;11.754;2023-05-02T02:25:49;96667.34;;;7.95;95.73
60479;BME280;46321;48.398;11.754;2023-05-02T02:28:15;96659.69;;;7.84;95.94
60479;BME280;46321;48.398;11.754;2023-05-02T02:30:40;96664.13;;;7.83;96.00
60479;BME280;46321;48.398;11.754;2023-05-02T02:33:05;96669.22;;;7.85;95.93
60479;BME280;46321;48.398;11.754;2023-05-02T02:35:36;96673.00;;;7.82;96.34
60479;BME280;46321;48.398;11.754;2023-05-02T02:40:58;96687.00;;;7.83;96.27
60479;BME280;46321;48.398;11.754;2023-05-02T02:46:16;96676.84;;;7.88;95.69
60479;BME280;46321;48.398;11.754;2023-05-02T02:48:56;96684.75;;;7.88;95.84
60479;BME280;46321;48.398;11.754;2023-05-02T02:51:38;96687.06;;;7.91;95.65
60479;BME280;46321;48.398;11.754;2023-05-02T02:54:45;96697.16;;;7.96;95.26
60479;BME280;46321;48.398;11.754;2023-05-02T02:57:36;96697.94;;;7.88;95.61
60479;BME280;46321;48.398;11.754;2023-05-02T03:00:15;96688.97;;;7.81;95.70
60479;BME280;46321;48.398;11.754;2023-05-02T03:02:45;96693.28;;;7.82;95.78
60479;BME280;46321;48.398;11.754;2023-05-02T03:05:12;96697.09;;;7.87;95.62
60479;BME280;46321;48.398;11.754;2023-05-02T03:07:37;96691.66;;;7.89;94.92
60479;BME280;46321;48.398;11.754;2023-05-02T03:10:03;96696.25;;;7.87;95.30
60479;BME280;46321;48.398;11.754;2023-05-02T03:12:29;96687.69;;;7.85;95.19
60479;BME280;46321;48.398;11.754;2023-05-02T03:15:05;96693.56;;;7.78;95.62
60479;BME280;46321;48.398;11.754;2023-05-02T03:17:34;96715.09;;;7.74;95.48
60479;BME280;46321;48.398;11.754;2023-05-02T03:19:59;96713.91;;;7.68;95.78
60479;BME280;46321;48.398;11.754;2023-05-02T03:22:25;96712.25;;;7.67;95.92
60479;BME280;46321;48.398;11.754;2023-05-02T03:24:50;96710.28;;;7.69;95.88
60479;BME280;46321;48.398;11.754;2023-05-02T03:27:15;96712.75;;;7.71;95.60
60479;BME280;46321;48.398;11.754;2023-05-02T03:29:41;96711.78;;;7.72;95.26
60479;BME280;46321;48.398;11.754;2023-05-02T03:32:06;96704.94;;;7.61;95.62
60479;BME280;46321;48.398;11.754;2023-05-02T03:34:31;96707.97;;;7.66;95.84
60479;BME280;46321;48.398;11.754;2023-05-02T03:36:57;96711.56;;;7.65;95.81
60479;BME280;46321;48.398;11.754;2023-05-02T03:39:22;96716.16;;;7.63;95.59
60479;BME280;46321;48.398;11.754;2023-05-02T03:41:47;96723.91;;;7.64;95.54
60479;BME280;46321;48.398;11.754;2023-05-02T03:44:13;96730.63;;;7.59;95.25
60479;BME280;46321;48.398;11.754;2023-05-02T03:46:38;96720.13;;;7.49;95.23
60479;BME280;46321;48.398;11.754;2023-05-02T03:49:03;96729.56;;;7.51;95.50
60479;BME280;46321;48.398;11.754;2023-05-02T03:51:28;96729.63;;;7.41;96.65
60479;BME280;46321;48.398;11.754;2023-05-02T03:53:54;96739.03;;;7.44;96.17
60479;BME280;46321;48.398;11.754;2023-05-02T03:56:19;96736.69;;;7.41;96.46
60479;BME280;46321;48.398;11.754;2023-05-02T03:58:44;96738.66;;;7.39;96.25
60479;BME280;46321;48.398;11.754;2023-05-02T04:01:14;96739.19;;;7.42;96.22
60479;BME280;46321;48.398;11.754;2023-05-02T04:03:40;96744.88;;;7.38;96.66
60479;BME280;46321;48.398;11.754;2023-05-02T04:06:05;96746.41;;;7.40;96.31
60479;BME280;46321;48.398;11.754;2023-05-02T04:08:30;96749.03;;;7.40;96.52
60479;BME280;46321;48.398;11.754;2023-05-02T04:10:56;96746.91;;;7.44;96.19
60479;BME280;46321;48.398;11.754;2023-05-02T04:13:21;96749.28;;;7.47;96.10
60479;BME280;46321;48.398;11.754;2023-05-02T04:15:46;96746.78;;;7.46;96.15
60479;BME280;46321;48.398;11.754;2023-05-02T04:18:12;96753.69;;;7.47;96.18
60479;BME280;46321;48.398;11.754;2023-05-02T04:20:37;96747.91;;;7.43;96.65
60479;BME280;46321;48.398;11.754;2023-05-02T04:23:02;96753.56;;;7.48;96.65
60479;BME280;46321;48.398;11.754;2023-05-02T04:25:27;96753.56;;;7.48;96.77
60479;BME280;46321;48.398;11.754;2023-05-02T04:27:53;96756.22;;;7.48;97.12
60479;BME280;46321;48.398;11.754;2023-05-02T04:30:18;96763.97;;;7.50;97.07
60479;BME280;46321;48.398;11.754;2023-05-02T04:32:43;96772.38;;;7.53;96.88
60479;BME280;46321;48.398;11.754;2023-05-02T04:35:09;96780.50;;;7.60;96.40
60479;BME280;46321;48.398;11.754;2023-05-02T04:37:34;96773.06;;;7.55;96.60
60479;BME280;46321;48.398;11.754;2023-05-02T04:40:00;96781.06;;;7.64;96.52
60479;BME280;46321;48.398;11.754;2023-05-02T04:42:25;96787.00;;;7.66;96.40
60479;BME280;46321;48.398;11.754;2023-05-02T04:44:51;96783.53;;;7.65;96.49
60479;BME280;46321;48.398;11.754;2023-05-02T04:47:16;96785.50;;;7.63;96.88
60479;BME280;46321;48.398;11.754;2023-05-02T04:49:42;96785.13;;;7.76;96.46
60479;BME280;46321;48.398;11.754;2023-05-02T04:52:10;96787.16;;;7.83;96.16
60479;BME280;46321;48.398;11.754;2023-05-02T04:54:35;96798.59;;;7.92;95.87
60479;BME280;46321;48.398;11.754;2023-05-02T04:57:01;96801.78;;;7.95;95.75
60479;BME280;46321;48.398;11.754;2023-05-02T04:59:28;96795.22;;;7.99;95.58
60479;BME280;46321;48.398;11.754;2023-05-02T05:01:54;96797.25;;;8.06;95.09
60479;BME280;46321;48.398;11.754;2023-05-02T05:04:20;96790.84;;;8.08;94.94
60479;BME280;46321;48.398;11.754;2023-05-02T05:06:45;96801.63;;;8.15;94.60
60479;BME280;46321;48.398;11.754;2023-05-02T05:09:12;96814.19;;;8.21;94.54
60479;BME280;46321;48.398;11.754;2023-05-02T05:11:37;96817.72;;;8.30;94.39
60479;BME280;46321;48.398;11.754;2023-05-02T05:14:03;96807.84;;;8.32;94.51
60479;BME280;46321;48.398;11.754;2023-05-02T05:16:29;96813.34;;;8.39;93.73
60479;BME280;46321;48.398;11.754;2023-05-02T05:18:54;96816.03;;;8.47;93.43
60479;BME280;46321;48.398;11.754;2023-05-02T05:21:20;96819.56;;;8.56;92.89
60479;BME280;46321;48.398;11.754;2023-05-02T05:23:45;96823.78;;;8.67;92.33
60479;BME280;46321;48.398;11.754;2023-05-02T05:26:13;96825.28;;;8.70;92.63
60479;BME280;46321;48.398;11.754;2023-05-02T05:28:39;96823.69;;;8.77;92.98
60479;BME280;46321;48.398;11.754;2023-05-02T05:31:05;96823.56;;;8.87;93.04
60479;BME280;46321;48.398;11.754;2023-05-02T05:33:31;96808.75;;;8.95;92.32
60479;BME280;46321;48.398;11.754;2023-05-02T05:36:03;96821.50;;;8.99;92.11
60479;BME280;46321;48.398;11.754;2023-05-02T05:38:28;96818.38;;;9.04;92.09
60479;BME280;46321;48.398;11.754;2023-05-02T05:40:54;96823.56;;;9.14;90.88
60479;BME280;46321;48.398;11.754;2023-05-02T05:43:19;96830.03;;;9.28;90.56
60479;BME280;46321;48.398;11.754;2023-05-02T05:45:44;96825.28;;;9.32;90.23
60479;BME280;46321;48.398;11.754;2023-05-02T05:48:10;96836.38;;;9.44;90.11
60479;BME280;46321;48.398;11.754;2023-05-02T05:50:35;96842.03;;;9.49;89.97
60479;BME280;46321;48.398;11.754;2023-05-02T05:53:00;96831.44;;;9.49;89.67
60479;BME280;46321;48.398;11.754;2023-05-02T05:55:26;96836.59;;;9.59;89.48
60479;BME280;46321;48.398;11.754;2023-05-02T05:57:51;96842.03;;;9.57;88.46
60479;BME280;46321;48.398;11.754;2023-05-02T06:00:17;96841.75;;;9.69;88.74
60479;BME280;46321;48.398;11.754;2023-05-02T06:02:43;96841.59;;;9.70;88.06
60479;BME280;46321;48.398;11.754;2023-05-02T06:05:08;96848.75;;;9.87;88.22
60479;BME280;46321;48.398;11.754;2023-05-02T06:07:33;96849.09;;;9.92;87.75
60479;BME280;46321;48.398;11.754;2023-05-02T06:09:58;96851.75;;;10.00;87.46
60479;BME280;46321;48.398;11.754;2023-05-02T06:12:24;96847.94;;;10.03;87.36
60479;BME280;46321;48.398;11.754;2023-05-02T06:14:50;96853.72;;;10.15;87.53
60479;BME280;46321;48.398;11.754;2023-05-02T06:17:16;96863.19;;;10.26;87.31
60479;BME280;46321;48.398;11.754;2023-05-02T06:19:41;96867.00;;;10.31;86.79
60479;BME280;46321;48.398;11.754;2023-05-02T06:22:07;96871.78;;;10.45;86.79
60479;BME280;46321;48.398;11.754;2023-05-02T06:24:32;96876.41;;;10.42;86.17
60479;BME280;46321;48.398;11.754;2023-05-02T06:26:57;96881.75;;;10.51;86.90
60479;BME280;46321;48.398;11.754;2023-05-02T06:29:23;96884.19;;;10.44;86.49
60479;BME280;46321;48.398;11.754;2023-05-02T06:31:49;96877.94;;;10.53;86.09
60479;BME280;46321;48.398;11.754;2023-05-02T06:34:15;96889.03;;;10.65;85.71
60479;BME280;46321;48.398;11.754;2023-05-02T06:36:40;96886.84;;;10.77;84.59
60479;BME280;46321;48.398;11.754;2023-05-02T06:39:05;96892.66;;;10.81;84.21
60479;BME280;46321;48.398;11.754;2023-05-02T06:41:31;96889.16;;;10.89;83.62
60479;BME280;46321;48.398;11.754;2023-05-02T06:43:56;96897.13;;;10.97;83.61
60479;BME280;46321;48.398;11.754;2023-05-02T06:46:21;96892.78;;;11.05;83.13
60479;BME280;46321;48.398;11.754;2023-05-02T06:48:48;96887.81;;;11.10;82.87
60479;BME280;46321;48.398;11.754;2023-05-02T06:51:13;96899.41;;;11.17;82.66
60479;BME280;46321;48.398;11.754;2023-05-02T06:53:38;96899.72;;;11.22;82.82
60479;BME280;46321;48.398;11.754;2023-05-02T06:56:04;96901.66;;;11.37;82.48
60479;BME280;46321;48.398;11.754;2023-05-02T06:58:30;96903.47;;;11.45;82.68
60479;BME280;46321;48.398;11.754;2023-05-02T07:00:55;96912.84;;;11.56;82.17
60479;BME280;46321;48.398;11.754;2023-05-02T07:03:21;96914.50;;;11.65;81.77
60479;BME280;46321;48.398;11.754;2023-05-02T07:05:46;96920.63;;;11.66;80.98
60479;BME280;46321;48.398;11.754;2023-05-02T07:08:11;96910.63;;;11.76;81.37
60479;BME280;46321;48.398;11.754;2023-05-02T07:10:37;96920.00;;;11.96;81.26
60479;BME280;46321;48.398;11.754;2023-05-02T07:13:02;96903.91;;;11.97;80.28
60479;BME280;46321;48.398;11.754;2023-05-02T07:15:27;96910.16;;;12.13;79.56
60479;BME280;46321;48.398;11.754;2023-05-02T07:17:53;96919.09;;;12.12;78.81
60479;BME280;46321;48.398;11.754;2023-05-02T07:20:18;96914.72;;;12.28;78.87
60479;BME280;46321;48.398;11.754;2023-05-02T07:22:44;96916.81;;;12.41;79.05
60479;BME280;46321;48.398;11.754;2023-05-02T07:25:09;96921.03;;;12.50;78.36
60479;BME280;46321;48.398;11.754;2023-05-02T07:27:34;96918.69;;;12.55;77.21
60479;BME280;46321;48.398;11.754;2023-05-02T07:30:00;96901.69;;;12.41;77.47
60479;BME280;46321;48.398;11.754;2023-05-02T07:32:25;96906.75;;;12.51;77.36
60479;BME280;46321;48.398;11.754;2023-05-02T07:34:51;96905.47;;;12.47;77.54
60479;BME280;46321;48.398;11.754;2023-05-02T07:37:18;96916.03;;;12.55;76.00
60479;BME280;46321;48.398;11.754;2023-05-02T07:39:44;96917.97;;;12.62;75.99
60479;BME280;46321;48.398;11.754;2023-05-02T07:42:09;96921.75;;;12.67;76.51
60479;BME280;46321;48.398;11.754;2023-05-02T07:44:34;96913.94;;;12.66;76.40
60479;BME280;46321;48.398;11.754;2023-05-02T07:47:01;96924.88;;;12.71;76.39
60479;BME280;46321;48.398;11.754;2023-05-02T07:49:26;96920.19;;;12.73;76.31
60479;BME280;46321;48.398;11.754;2023-05-02T07:51:52;96921.72;;;12.91;75.60
60479;BME280;46321;48.398;11.754;2023-05-02T07:54:19;96929.25;;;13.02;75.86
60479;BME280;46321;48.398;11.754;2023-05-02T07:56:44;96925.34;;;13.13;74.63
60479;BME280;46321;48.398;11.754;2023-05-02T07:59:10;96928.09;;;13.20;74.86
60479;BME280;46321;48.398;11.754;2023-05-02T08:01:36;96931.66;;;13.12;74.64
60479;BME280;46321;48.398;11.754;2023-05-02T08:04:02;96937.66;;;13.30;75.35
60479;BME280;46321;48.398;11.754;2023-05-02T08:06:28;96938.84;;;13.42;74.42
60479;BME280;46321;48.398;11.754;2023-05-02T08:08:53;96933.25;;;13.52;74.22
60479;BME280;46321;48.398;11.754;2023-05-02T08:11:19;96934.25;;;13.51;73.59
60479;BME280;46321;48.398;11.754;2023-05-02T08:13:46;96935.28;;;13.80;72.77
60479;BME280;46321;48.398;11.754;2023-05-02T08:16:12;96938.97;;;13.79;72.20
60479;BME280;46321;48.398;11.754;2023-05-02T08:18:37;96934.63;;;13.93;72.44
60479;BME280;46321;48.398;11.754;2023-05-02T08:21:02;96933.34;;;14.04;72.07
60479;BME280;46321;48.398;11.754;2023-05-02T08:23:28;96939.31;;;14.06;71.88
60479;BME280;46321;48.398;11.754;2023-05-02T08:25:53;96940.66;;;14.17;72.18
60479;BME280;46321;48.398;11.754;2023-05-02T08:28:19;96933.78;;;14.08;70.63
60479;BME280;46321;48.398;11.754;2023-05-02T08:30:44;96938.00;;;14.17;70.61
60479;BME280;46321;48.398;11.754;2023-05-02T08:33:09;96938.16;;;14.31;71.19
60479;BME280;46321;48.398;11.754;2023-05-02T08:35:35;96944.59;;;14.22;70.62
60479;BME280;46321;48.398;11.754;2023-05-02T08:38:01;96940.03;;;14.15;70.06
60479;BME280;46321;48.398;11.754;2023-05-02T08:40:26;96939.16;;;14.30;69.86
60479;BME280;46321;48.398;11.754;2023-05-02T08:42:53;96942.97;;;14.42;69.86
60479;BME280;46321;48.398;11.754;2023-05-02T08:45:18;96942.09;;;14.35;67.85
60479;BME280;46321;48.398;11.754;2023-05-02T08:47:44;96934.22;;;14.49;68.16
60479;BME280;46321;48.398;11.754;2023-05-02T08:50:11;96946.97;;;14.53;68.77
60479;BME280;46321;48.398;11.754;2023-05-02T08:52:37;96944.25;;;14.47;68.47
60479;BME280;46321;48.398;11.754;2023-05-02T08:55:05;96946.59;;;14.57;68.10
60479;BME280;46321;48.398;11.754;2023-05-02T08:57:31;96943.34;;;14.61;68.19
60479;BME280;46321;48.398;11.754;2023-05-02T08:59:57;96952.03;;;14.70;67.63
60479;BME280;46321;48.398;11.754;2023-05-02T09:05:25;96950.91;;;14.58;66.72
60479;BME280;46321;48.398;11.754;2023-05-02T09:07:51;96955.91;;;14.46;68.16
60479;BME280;46321;48.398;11.754;2023-05-02T09:10:16;96963.63;;;14.40;66.57
60479;BME280;46321;48.398;11.754;2023-05-02T09:12:42;96959.97;;;14.41;67.78
60479;BME280;46321;48.398;11.754;2023-05-02T09:15:12;96968.91;;;14.34;68.51
60479;BME280;46321;48.398;11.754;2023-05-02T09:17:47;96968.63;;;14.28;68.21
60479;BME280;46321;48.398;11.754;2023-05-02T09:20:14;96974.41;;;14.32;68.34
60479;BME280;46321;48.398;11.754;2023-05-02T09:22:50;96979.34;;;14.35;68.76
60479;BME280;46321;48.398;11.754;2023-05-02T09:25:16;96969.75;;;14.19;69.05
60479;BME280;46321;48.398;11.754;2023-05-02T09:27:52;96979.19;;;14.22;69.33
60479;BME280;46321;48.398;11.754;2023-05-02T09:30:19;96981.53;;;13.94;69.27
60479;BME280;46321;48.398;11.754;2023-05-02T09:32:45;96984.09;;;14.03;68.91
60479;BME280;46321;48.398;11.754;2023-05-02T09:35:11;96987.78;;;14.02;69.27
60479;BME280;46321;48.398;11.754;2023-05-02T09:37:37;96977.75;;;14.04;69.27
60479;BME280;46321;48.398;11.754;2023-05-02T09:40:06;96983.25;;;14.17;69.03
60479;BME280;46321;48.398;11.754;2023-05-02T09:42:33;96984.09;;;14.18;68.60
60479;BME280;46321;48.398;11.754;2023-05-02T09:44:58;96990.75;;;14.29;68.85
60479;BME280;46321;48.398;11.754;2023-05-02T09:47:24;96989.72;;;14.30;68.91
60479;BME280;46321;48.398;11.754;2023-05-02T09:49:51;96987.34;;;14.35;68.46
60479;BME280;46321;48.398;11.754;2023-05-02T09:52:18;96989.91;;;14.43;69.09
60479;BME280;46321;48.398;11.754;2023-05-02T09:54:46;96989.06;;;14.43;67.93
60479;BME280;46321;48.398;11.754;2023-05-02T09:57:14;96981.25;;;14.41;67.83
60479;BME280;46321;48.398;11.754;2023-05-02T09:59:40;96991.00;;;14.49;67.97
60479;BME280;46321;48.398;11.754;2023-05-02T10:02:06;96990.31;;;14.62;68.18
60479;BME280;46321;48.398;11.754;2023-05-02T10:04:33;96974.63;;;14.52;68.44
60479;BME280;46321;48.398;11.754;2023-05-02T10:07:01;96985.34;;;14.59;67.69
60479;BME280;46321;48.398;11.754;2023-05-02T10:09:27;96988.66;;;14.61;67.87
60479;BME280;46321;48.398;11.754;2023-05-02T10:11:54;96983.72;;;14.58;68.46
60479;BME280;46321;48.398;11.754;2023-05-02T10:14:22;96985.78;;;14.63;67.11
60479;BME280;46321;48.398;11.754;2023-05-02T10:19:32;96995.25;;;14.65;67.47
60479;BME280;46321;48.398;11.754;2023-05-02T10:22:02;96998.59;;;14.52;68.23
60479;BME280;46321;48.398;11.754;2023-05-02T10:24:30;97000.38;;;14.30;69.21
60479;BME280;46321;48.398;11.754;2023-05-02T10:26:57;97000.94;;;14.25;68.13
60479;BME280;46321;48.398;11.754;2023-05-02T10:29:23;96982.97;;;14.12;68.75
60479;BME280;46321;48.398;11.754;2023-05-02T10:31:48;97000.34;;;13.93;68.29
60479;BME280;46321;48.398;11.754;2023-05-02T10:36:42;97005.13;;;13.98;67.96
60479;BME280;46321;48.398;11.754;2023-05-02T10:39:07;97000.59;;;13.98;68.30
60479;BME280;46321;48.398;11.754;2023-05-02T10:41:33;97004.66;;;13.94;68.35
60479;BME280;46321;48.398;11.754;2023-05-02T10:43:59;97000.59;;;13.98;68.30
60479;BME280;46321;48.398;11.754;2023-05-02T10:46:39;97007.50;;;13.92;67.99
60479;BME280;46321;48.398;11.754;2023-05-02T10:49:08;97005.75;;;14.00;68.03
60479;BME280;46321;48.398;11.754;2023-05-02T10:51:35;97002.47;;;13.98;67.81
60479;BME280;46321;48.398;11.754;2023-05-02T10:59:39;96996.09;;;14.14;67.49
60479;BME280;46321;48.398;11.754;2023-05-02T11:05:03;97001.84;;;14.33;68.75
60479;BME280;46321;48.398;11.754;2023-05-02T11:07:30;96997.28;;;14.26;68.68
60479;BME280;46321;48.398;11.754;2023-05-02T11:12:53;96993.06;;;14.54;68.31
60479;BME280;46321;48.398;11.754;2023-05-02T11:18:07;96993.69;;;14.71;67.86
60479;BME280;46321;48.398;11.754;2023-05-02T11:20:34;96989.47;;;14.84;67.07
60479;BME280;46321;48.398;11.754;2023-05-02T11:25:47;96981.16;;;14.87;65.74
60479;BME280;46321;48.398;11.754;2023-05-02T11:31:01;96985.44;;;15.10;64.51
60479;BME280;46321;48.398;11.754;2023-05-02T11:33:29;96985.28;;;14.90;64.96
60479;BME280;46321;48.398;11.754;2023-05-02T11:35:55;96984.69;;;14.94;63.32
60479;BME280;46321;48.398;11.754;2023-05-02T11:38:24;96991.09;;;15.00;64.74
60479;BME280;46321;48.398;11.754;2023-05-02T11:40:55;96990.81;;;15.17;64.03
60479;BME280;46321;48.398;11.754;2023-05-02T11:43:21;96990.88;;;15.23;62.75
60479;BME280;46321;48.398;11.754;2023-05-02T11:45:47;96989.06;;;15.02;63.84
60479;BME280;46321;48.398;11.754;2023-05-02T11:48:15;96994.88;;;15.13;63.01
60479;BME280;46321;48.398;11.754;2023-05-02T11:50:49;96992.69;;;15.45;62.84
60479;BME280;46321;48.398;11.754;2023-05-02T11:53:17;96987.16;;;15.82;63.05
60479;BME280;46321;48.398;11.754;2023-05-02T11:55:53;96988.81;;;16.19;61.95
60479;BME280;46321;48.398;11.754;2023-05-02T11:58:24;96992.41;;;16.46;61.42
60479;BME280;46321;48.398;11.754;2023-05-02T12:00:51;96980.09;;;16.59;57.84
60479;BME280;46321;48.398;11.754;2023-05-02T12:03:22;96984.44;;;16.74;56.99
60479;BME280;46321;48.398;11.754;2023-05-02T12:05:48;96987.72;;;16.55;58.02
60479;BME280;46321;48.398;11.754;2023-05-02T12:08:21;96990.66;;;16.18;56.74
60479;BME280;46321;48.398;11.754;2023-05-02T12:10:48;96976.41;;;16.04;56.90
60479;BME280;46321;48.398;11.754;2023-05-02T12:13:14;96979.69;;;16.48;56.65
60479;BME280;46321;48.398;11.754;2023-05-02T12:15:39;96986.31;;;16.80;56.41
60479;BME280;46321;48.398;11.754;2023-05-02T12:18:05;96983.03;;;16.91;54.81
60479;BME280;46321;48.398;11.754;2023-05-02T12:20:31;96982.25;;;17.04;54.39
60479;BME280;46321;48.398;11.754;2023-05-02T12:22:56;96981.72;;;16.46;55.54
60479;BME280;46321;48.398;11.754;2023-05-02T12:25:22;96972.72;;;16.61;55.76
60479;BME280;46321;48.398;11.754;2023-05-02T12:28:00;96977.66;;;16.85;54.80
60479;BME280;46321;48.398;11.754;2023-05-02T12:30:30;96981.19;;;16.99;54.52
60479;BME280;46321;48.398;11.754;2023-05-02T12:32:56;96979.13;;;16.87;54.15
60479;BME280;46321;48.398;11.754;2023-05-02T12:35:26;96980.19;;;17.00;54.54
60479;BME280;46321;48.398;11.754;2023-05-02T12:37:52;96984.91;;;17.11;54.50
60479;BME280;46321;48.398;11.754;2023-05-02T12:40:19;96990.25;;;17.04;56.56
60479;BME280;46321;48.398;11.754;2023-05-02T12:42:58;96995.72;;;16.55;55.18
60479;BME280;46321;48.398;11.754;2023-05-02T12:45:24;96995.66;;;16.35;53.70
60479;BME280;46321;48.398;11.754;2023-05-02T12:47:53;97006.34;;;15.93;54.52
60479;BME280;46321;48.398;11.754;2023-05-02T12:50:18;97005.34;;;15.65;53.16
60479;BME280;46321;48.398;11.754;2023-05-02T12:52:51;97024.06;;;15.43;53.64
60479;BME280;46321;48.398;11.754;2023-05-02T12:55:25;97038.63;;;15.18;56.95
60479;BME280;46321;48.398;11.754;2023-05-02T12:58:04;97032.63;;;14.72;61.07
60479;BME280;46321;48.398;11.754;2023-05-02T13:00:31;97038.94;;;14.34;62.70
60479;BME280;46321;48.398;11.754;2023-05-02T13:02:57;97040.53;;;13.83;62.90
60479;BME280;46321;48.398;11.754;2023-05-02T13:05:22;97037.44;;;13.17;63.69
60479;BME280;46321;48.398;11.754;2023-05-02T13:07:48;97028.13;;;12.74;65.49
60479;BME280;46321;48.398;11.754;2023-05-02T13:10:13;97023.06;;;12.79;64.95
60479;BME280;46321;48.398;11.754;2023-05-02T13:12:39;97010.69;;;12.71;67.48
60479;BME280;46321;48.398;11.754;2023-05-02T13:15:06;97007.44;;;12.61;66.78
60479;BME280;46321;48.398;11.754;2023-05-02T13:17:33;97013.41;;;12.63;68.68
60479;BME280;46321;48.398;11.754;2023-05-02T13:19:58;97009.59;;;12.34;70.31
60479;BME280;46321;48.398;11.754;2023-05-02T13:22:24;97019.06;;;12.28;70.53
60479;BME280;46321;48.398;11.754;2023-05-02T13:24:50;97027.38;;;12.25;69.37
60479;BME280;46321;48.398;11.754;2023-05-02T13:27:16;97022.53;;;12.29;68.95
60479;BME280;46321;48.398;11.754;2023-05-02T13:29:45;97030.69;;;12.19;69.27
60479;BME280;46321;48.398;11.754;2023-05-02T13:32:11;97027.75;;;12.13;70.54
60479;BME280;46321;48.398;11.754;2023-05-02T13:34:36;97032.22;;;12.05;73.47